Terminal Aerodrome Forecast
Issued by NWS Amarillo, TX

Home | Current Version | Previous Version | Text Only | Print | Product List | Glossary On
Versions: 1 2 3 4 5 6 7 8 9 10 11 12 13
523
FTUS44 KAMA 192334
TAFDHT
TAF
KDHT 192334Z 2000/2024 17010KT P6SM OVC150
     FM200800 20015KT P6SM SCT005 OVC100
     FM201600 21025G35KT P6SM SKC=

USA.gov is the U.S. government's official web portal to all federal, state and local government web resources and services.